createdAt,value
2023-04-18T00:00:07.133Z,7.68
2023-04-18T00:03:02.332Z,7.64
2023-04-18T00:05:32.375Z,7.61
2023-04-18T00:08:00.979Z,7.58
2023-04-18T00:10:29.424Z,7.60
2023-04-18T00:12:58.516Z,7.59
2023-04-18T00:15:27.024Z,7.63
2023-04-18T00:17:56.982Z,7.60
2023-04-18T00:20:27.786Z,7.49
2023-04-18T00:22:56.261Z,7.42
2023-04-18T00:25:24.632Z,7.37
2023-04-18T00:27:53.070Z,7.30
2023-04-18T00:30:21.652Z,7.25
2023-04-18T00:32:50.041Z,7.16
2023-04-18T00:35:20.058Z,7.00
2023-04-18T00:37:48.470Z,6.98
2023-04-18T00:40:18.005Z,6.93
2023-04-18T00:42:46.436Z,6.96
2023-04-18T00:45:15.876Z,6.90
2023-04-18T00:47:44.356Z,6.94
2023-04-18T00:50:13.227Z,6.97
2023-04-18T00:52:44.032Z,7.03
2023-04-18T00:55:12.621Z,6.98
2023-04-18T00:57:41.850Z,6.97
2023-04-18T01:00:10.821Z,6.84
2023-04-18T01:02:40.181Z,6.87
2023-04-18T01:05:08.956Z,6.74
2023-04-18T01:07:40.997Z,6.84
2023-04-18T01:10:10.524Z,6.92
2023-04-18T01:12:39.349Z,7.01
2023-04-18T01:15:08.461Z,7.05
2023-04-18T01:17:38.686Z,7.10
2023-04-18T01:20:08.157Z,7.11
2023-04-18T01:22:37.208Z,7.15
2023-04-18T01:25:09.321Z,7.16
2023-04-18T01:27:37.705Z,7.14
2023-04-18T01:30:06.953Z,7.06
2023-04-18T01:32:35.759Z,7.00
2023-04-18T01:35:04.884Z,7.03
2023-04-18T01:37:35.416Z,7.02
2023-04-18T01:40:05.093Z,7.02
2023-04-18T01:42:33.449Z,7.05
2023-04-18T01:45:01.890Z,7.09
2023-04-18T01:47:30.507Z,7.08
2023-04-18T01:49:58.943Z,7.08
2023-04-18T01:52:30.343Z,7.10
2023-04-18T01:54:58.856Z,7.12
2023-04-18T01:57:27.180Z,7.11
2023-04-18T01:59:55.762Z,7.19
2023-04-18T02:02:24.583Z,7.23
2023-04-18T02:04:53.413Z,7.26
2023-04-18T02:07:21.868Z,7.28
2023-04-18T02:09:50.184Z,7.23
2023-04-18T02:12:18.582Z,7.26
2023-04-18T02:14:54.082Z,7.24
2023-04-18T02:17:23.848Z,7.11
2023-04-18T02:19:52.412Z,6.93
2023-04-18T02:22:20.799Z,6.92
2023-04-18T02:24:49.184Z,6.93
2023-04-18T02:27:18.458Z,6.95
2023-04-18T02:29:46.794Z,6.85
2023-04-18T02:32:15.303Z,6.76
2023-04-18T02:34:45.384Z,6.76
2023-04-18T02:37:13.857Z,6.62
2023-04-18T02:39:42.317Z,6.52
2023-04-18T02:42:10.757Z,6.59
2023-04-18T02:44:39.100Z,6.56
2023-04-18T02:47:07.541Z,6.56
2023-04-18T02:49:36.977Z,6.57
2023-04-18T02:52:05.472Z,6.49
2023-04-18T02:54:33.842Z,6.47
2023-04-18T02:57:06.441Z,6.37
2023-04-18T02:59:54.359Z,6.33
2023-04-18T03:02:41.611Z,6.29
2023-04-18T03:05:32.934Z,6.23
2023-04-18T03:08:03.214Z,6.29
2023-04-18T03:10:31.761Z,6.31
2023-04-18T03:13:00.314Z,6.21
2023-04-18T03:15:31.441Z,6.26
2023-04-18T03:18:00.130Z,6.19
2023-04-18T03:20:29.925Z,6.23
2023-04-18T03:22:58.496Z,6.19
2023-04-18T03:25:27.606Z,6.21
2023-04-18T03:27:56.613Z,6.24
2023-04-18T03:30:26.085Z,6.30
2023-04-18T03:32:56.408Z,6.23
2023-04-18T03:35:25.120Z,6.24
2023-04-18T03:37:53.559Z,6.26
2023-04-18T03:40:25.944Z,6.27
2023-04-18T03:42:56.481Z,6.28
2023-04-18T03:45:24.858Z,6.26
2023-04-18T03:47:53.548Z,6.29
2023-04-18T03:50:22.457Z,6.31
2023-04-18T03:52:51.153Z,6.33
2023-04-18T03:55:19.989Z,6.32
2023-04-18T03:57:48.485Z,6.39
2023-04-18T04:00:23.524Z,6.44
2023-04-18T04:02:55.838Z,6.47
2023-04-18T04:05:24.393Z,6.48
2023-04-18T04:07:52.951Z,6.48
2023-04-18T04:10:21.547Z,6.48
2023-04-18T04:12:50.253Z,6.55
2023-04-18T04:15:19.058Z,6.60
2023-04-18T04:17:57.992Z,6.69
2023-04-18T04:20:26.903Z,6.79
2023-04-18T04:23:02.377Z,6.90
2023-04-18T04:25:31.294Z,6.90
2023-04-18T04:28:03.081Z,6.89
2023-04-18T04:30:33.881Z,6.88
2023-04-18T04:33:03.732Z,6.90
2023-04-18T04:35:32.455Z,6.95
2023-04-18T04:38:01.881Z,7.11
2023-04-18T04:40:35.655Z,7.24
2023-04-18T04:43:12.936Z,7.24
2023-04-18T04:45:45.503Z,7.37
2023-04-18T04:48:13.993Z,7.53
2023-04-18T04:50:51.572Z,7.62
2023-04-18T04:53:20.094Z,7.68
2023-04-18T04:55:48.676Z,7.68
2023-04-18T04:58:18.232Z,7.67
2023-04-18T05:01:18.679Z,7.66
2023-04-18T05:03:47.510Z,7.51
2023-04-18T05:06:20.834Z,7.56
2023-04-18T05:08:50.208Z,7.61
2023-04-18T05:11:18.704Z,7.63
2023-04-18T05:13:47.048Z,7.66
2023-04-18T05:16:15.469Z,7.74
2023-04-18T05:18:43.889Z,7.83
2023-04-18T05:21:12.223Z,7.90
2023-04-18T05:23:40.789Z,7.99
2023-04-18T05:26:11.009Z,8.06
2023-04-18T05:28:39.394Z,8.15
2023-04-18T05:31:07.866Z,8.13
2023-04-18T05:33:36.290Z,8.14
2023-04-18T05:36:04.954Z,8.05
2023-04-18T05:38:33.405Z,8.04
2023-04-18T05:41:03.284Z,8.10
2023-04-18T05:43:31.743Z,8.11
2023-04-18T05:46:00.201Z,8.15
2023-04-18T05:48:28.687Z,8.25
2023-04-18T05:50:58.132Z,8.41
2023-04-18T05:53:26.570Z,8.53
2023-04-18T05:55:55.389Z,8.58
2023-04-18T05:58:23.816Z,8.67
2023-04-18T06:00:53.571Z,8.73
2023-04-18T06:03:21.984Z,8.87
2023-04-18T06:05:50.688Z,8.98
2023-04-18T06:08:19.167Z,9.00
2023-04-18T06:10:47.552Z,9.08
2023-04-18T06:13:15.910Z,9.15
2023-04-18T06:15:44.402Z,9.20
2023-04-18T06:18:13.415Z,9.24
2023-04-18T06:20:44.269Z,9.32
2023-04-18T06:23:12.739Z,9.40
2023-04-18T06:25:44.038Z,9.46
2023-04-18T06:28:12.478Z,9.55
2023-04-18T06:30:40.859Z,9.60
2023-04-18T06:33:11.990Z,9.48
2023-04-18T06:35:40.514Z,9.52
2023-04-18T06:38:10.816Z,9.50
2023-04-18T06:40:39.321Z,9.58
2023-04-18T06:43:07.874Z,9.65
2023-04-18T06:45:36.325Z,9.56
2023-04-18T06:48:05.716Z,9.56
2023-04-18T06:50:34.188Z,9.63
2023-04-18T06:53:02.823Z,9.65
2023-04-18T06:55:31.263Z,9.56
2023-04-18T06:58:00.657Z,9.56
2023-04-18T07:00:29.105Z,9.58
2023-04-18T07:02:57.584Z,9.62
2023-04-18T07:05:26.304Z,9.67
2023-04-18T07:07:54.753Z,9.77
2023-04-18T07:10:23.214Z,9.84
2023-04-18T07:12:51.535Z,9.66
2023-04-18T07:15:19.926Z,9.74
2023-04-18T07:17:48.812Z,9.76
2023-04-18T07:20:17.594Z,9.83
2023-04-18T07:22:46.294Z,9.85
2023-04-18T07:25:14.650Z,9.90
2023-04-18T07:27:42.986Z,9.91
2023-04-18T07:30:13.486Z,9.82
2023-04-18T07:32:42.312Z,9.70
2023-04-18T07:35:10.843Z,9.65
2023-04-18T07:37:39.284Z,9.64
2023-04-18T07:40:09.979Z,9.59
2023-04-18T07:42:40.108Z,9.63
2023-04-18T07:45:08.853Z,9.71
2023-04-18T07:47:37.262Z,9.67
2023-04-18T07:50:06.229Z,9.67
2023-04-18T07:52:34.910Z,9.70
2023-04-18T07:55:03.763Z,9.69
2023-04-18T07:57:32.334Z,9.70
2023-04-18T08:00:00.712Z,9.73
2023-04-18T08:02:29.305Z,9.65
2023-04-18T08:04:58.836Z,9.82
2023-04-18T08:07:27.288Z,9.97
2023-04-18T08:09:55.679Z,10.12
2023-04-18T08:12:24.053Z,10.25
2023-04-18T08:14:52.424Z,10.36
2023-04-18T08:17:21.054Z,10.51
2023-04-18T08:19:49.479Z,10.40
2023-04-18T08:22:17.853Z,10.58
2023-04-18T08:24:57.225Z,10.72
2023-04-18T08:27:32.303Z,10.81
2023-04-18T08:30:01.207Z,10.94
2023-04-18T08:32:29.651Z,11.13
2023-04-18T08:34:58.035Z,11.18
2023-04-18T08:37:28.127Z,11.23
2023-04-18T08:39:58.084Z,11.15
2023-04-18T08:42:26.536Z,11.15
2023-04-18T08:44:56.210Z,11.20
2023-04-18T08:47:24.586Z,11.21
2023-04-18T08:49:53.844Z,11.28
2023-04-18T08:52:23.271Z,11.40
2023-04-18T08:54:52.136Z,11.38
2023-04-18T08:57:32.547Z,11.36
2023-04-18T09:00:08.539Z,11.32
2023-04-18T09:02:47.225Z,11.28
2023-04-18T09:05:19.221Z,11.24
2023-04-18T09:07:53.386Z,11.20
2023-04-18T09:10:35.143Z,11.14
2023-04-18T09:13:04.571Z,11.12
2023-04-18T09:15:33.224Z,11.04
2023-04-18T09:18:03.402Z,11.01
2023-04-18T09:20:42.378Z,10.98
2023-04-18T09:23:14.910Z,10.94
2023-04-18T09:25:46.969Z,10.93
2023-04-18T09:28:29.215Z,10.90
2023-04-18T09:31:15.849Z,10.90
2023-04-18T09:33:57.106Z,10.91
2023-04-18T09:36:29.064Z,10.92
2023-04-18T09:38:57.587Z,10.87
2023-04-18T09:41:25.943Z,10.85
2023-04-18T09:44:15.030Z,10.88
2023-04-18T09:46:47.091Z,10.91
2023-04-18T09:49:20.221Z,10.88
2023-04-18T09:51:50.676Z,10.84
2023-04-18T09:54:20.830Z,10.85
2023-04-18T09:56:51.136Z,10.81
2023-04-18T10:00:10.804Z,10.80
2023-04-18T10:02:51.661Z,10.78
2023-04-18T10:05:21.610Z,10.79
2023-04-18T10:07:51.134Z,10.80
2023-04-18T10:10:19.731Z,10.76
2023-04-18T10:12:49.200Z,10.82
2023-04-18T10:15:20.220Z,10.82
2023-04-18T10:18:03.694Z,10.80
2023-04-18T10:20:35.383Z,10.76
2023-04-18T10:23:37.379Z,10.77
2023-04-18T10:26:10.023Z,10.70
2023-04-18T10:28:55.183Z,10.74
2023-04-18T10:31:27.964Z,10.77
2023-04-18T10:34:05.231Z,10.79
2023-04-18T10:36:34.287Z,10.88
2023-04-18T10:39:21.357Z,10.95
2023-04-18T10:41:51.095Z,11.06
2023-04-18T10:44:23.073Z,11.14
2023-04-18T10:46:52.037Z,11.36
2023-04-18T10:49:23.285Z,11.50
2023-04-18T10:51:56.282Z,11.67
2023-04-18T10:54:55.995Z,11.82
2023-04-18T10:57:25.549Z,12.07
2023-04-18T10:59:55.068Z,12.10
2023-04-18T11:02:30.493Z,12.04
2023-04-18T11:05:00.656Z,11.95
2023-04-18T11:07:49.032Z,11.91
2023-04-18T11:10:26.441Z,11.83
2023-04-18T11:12:55.409Z,11.71
2023-04-18T11:15:25.382Z,11.61
2023-04-18T11:17:58.446Z,11.48
2023-04-18T11:20:27.604Z,11.31
2023-04-18T11:22:58.711Z,11.18
2023-04-18T11:25:32.597Z,11.07
2023-04-18T11:28:02.441Z,10.89
2023-04-18T11:30:38.775Z,10.98
2023-04-18T11:33:11.842Z,10.90
2023-04-18T11:35:47.131Z,10.92
2023-04-18T11:38:16.401Z,10.99
2023-04-18T11:40:48.697Z,10.97
2023-04-18T11:43:25.000Z,10.91
2023-04-18T11:45:57.777Z,10.83
2023-04-18T11:48:39.384Z,10.69
2023-04-18T11:51:28.039Z,10.37
2023-04-18T11:53:56.375Z,10.44
2023-04-18T11:56:24.771Z,10.47
2023-04-18T11:58:53.211Z,10.43
2023-04-18T12:01:23.280Z,10.54
2023-04-18T12:04:03.307Z,10.54
2023-04-18T12:06:48.897Z,10.61
2023-04-18T12:09:17.711Z,10.56
2023-04-18T12:11:58.682Z,10.67
2023-04-18T12:14:27.517Z,10.45
2023-04-18T12:16:56.542Z,10.50
2023-04-18T12:19:28.609Z,10.57
2023-04-18T12:22:01.124Z,10.64
2023-04-18T12:24:30.154Z,10.69
2023-04-18T12:26:59.270Z,10.65
2023-04-18T12:29:28.818Z,10.61
2023-04-18T12:31:57.406Z,10.58
2023-04-18T12:34:25.737Z,10.61
2023-04-18T12:36:54.187Z,10.50
2023-04-18T12:39:22.643Z,10.50
2023-04-18T12:41:50.959Z,10.56
2023-04-18T12:44:19.280Z,10.59
2023-04-18T12:46:47.865Z,10.56
2023-04-18T12:49:16.440Z,10.60
2023-04-18T12:51:44.896Z,10.62
2023-04-18T12:54:13.514Z,10.65
2023-04-18T12:56:42.086Z,10.72
2023-04-18T12:59:10.465Z,10.81
2023-04-18T13:01:38.901Z,10.89
2023-04-18T13:04:12.613Z,10.85
2023-04-18T13:06:41.740Z,10.93
2023-04-18T13:09:10.612Z,10.97
2023-04-18T13:11:39.092Z,11.05
2023-04-18T13:14:07.583Z,11.06
2023-04-18T13:16:36.082Z,10.92
2023-04-18T13:19:04.532Z,10.90
2023-04-18T13:21:32.918Z,10.94
2023-04-18T13:24:01.395Z,10.86
2023-04-18T13:26:29.830Z,10.87
2023-04-18T13:28:58.195Z,10.89
2023-04-18T13:31:26.603Z,10.90
2023-04-18T13:33:54.932Z,10.96
2023-04-18T13:36:24.435Z,10.90
2023-04-18T13:38:53.406Z,10.85
2023-04-18T13:41:22.970Z,10.79
2023-04-18T13:43:51.348Z,10.80
2023-04-18T13:46:19.936Z,10.92
2023-04-18T13:48:48.263Z,10.90
2023-04-18T13:51:16.636Z,10.91
2023-04-18T13:53:45.163Z,10.92
2023-04-18T13:56:13.632Z,10.97
2023-04-18T13:58:41.994Z,11.00
2023-04-18T14:01:10.756Z,11.04
2023-04-18T14:03:42.209Z,11.07
2023-04-18T14:06:12.443Z,10.95
2023-04-18T14:08:41.154Z,10.91
2023-04-18T14:11:09.484Z,10.78
2023-04-18T14:13:37.828Z,10.75
2023-04-18T14:16:06.836Z,10.71
2023-04-18T14:18:35.782Z,10.70
2023-04-18T14:21:04.268Z,10.74
2023-04-18T14:23:32.767Z,10.77
2023-04-18T14:26:01.194Z,10.81
2023-04-18T14:28:29.994Z,10.75
2023-04-18T14:31:00.195Z,10.64
2023-04-18T14:33:29.560Z,10.63
2023-04-18T14:35:57.921Z,10.58
2023-04-18T14:38:26.600Z,10.58
2023-04-18T14:40:55.625Z,10.59
2023-04-18T14:43:24.157Z,10.51
2023-04-18T14:45:52.549Z,10.48
2023-04-18T14:48:21.400Z,10.45
2023-04-18T14:51:00.040Z,10.41
2023-04-18T14:53:28.564Z,10.46
2023-04-18T14:55:56.940Z,10.34
2023-04-18T14:58:25.889Z,10.39
2023-04-18T15:00:54.561Z,10.44
2023-04-18T15:03:23.146Z,10.48
2023-04-18T15:05:53.602Z,10.50
2023-04-18T15:08:22.567Z,10.51
2023-04-18T15:10:50.927Z,10.50
2023-04-18T15:13:19.736Z,10.45
2023-04-18T15:15:54.697Z,10.47
2023-04-18T15:18:23.167Z,10.53
2023-04-18T15:20:51.781Z,10.54
2023-04-18T15:23:21.060Z,10.58
2023-04-18T15:25:49.439Z,10.53
2023-04-18T15:28:19.424Z,10.49
2023-04-18T15:30:47.944Z,10.48
2023-04-18T15:33:17.739Z,10.47
2023-04-18T15:35:49.171Z,10.44
2023-04-18T15:38:17.497Z,10.44
2023-04-18T15:40:46.224Z,10.41
2023-04-18T15:43:15.624Z,10.37
2023-04-18T15:45:44.838Z,10.39
2023-04-18T15:48:13.450Z,10.38
2023-04-18T15:50:42.643Z,10.38
2023-04-18T15:53:11.205Z,10.41
2023-04-18T15:55:39.680Z,10.43
2023-04-18T15:58:08.292Z,10.38
2023-04-18T16:00:36.748Z,10.33
2023-04-18T16:03:05.221Z,10.29
2023-04-18T16:05:33.808Z,10.26
2023-04-18T16:08:02.775Z,10.20
2023-04-18T16:10:31.175Z,10.17
2023-04-18T16:12:59.719Z,10.20
2023-04-18T16:15:28.363Z,10.24
2023-04-18T16:17:56.946Z,10.26
2023-04-18T16:20:27.316Z,10.24
2023-04-18T16:22:55.800Z,10.28
2023-04-18T16:25:24.204Z,10.31
2023-04-18T16:27:52.640Z,10.31
2023-04-18T16:30:21.185Z,10.28
2023-04-18T16:32:49.510Z,10.19
2023-04-18T16:35:18.024Z,10.10
2023-04-18T16:37:46.356Z,10.03
2023-04-18T16:40:15.543Z,10.09
2023-04-18T16:42:43.951Z,10.13
2023-04-18T16:45:12.328Z,10.18
2023-04-18T16:47:40.709Z,10.23
2023-04-18T16:50:09.634Z,10.22
2023-04-18T16:52:38.041Z,10.26
2023-04-18T16:55:06.974Z,10.24
2023-04-18T16:57:35.367Z,10.18
2023-04-18T17:00:05.263Z,10.19
2023-04-18T17:02:33.778Z,10.19
2023-04-18T17:05:02.430Z,10.19
2023-04-18T17:07:31.007Z,10.20
2023-04-18T17:09:59.510Z,10.21
2023-04-18T17:12:28.283Z,10.23
2023-04-18T17:14:56.762Z,10.18
2023-04-18T17:17:25.181Z,10.15
2023-04-18T17:19:53.652Z,10.14
2023-04-18T17:22:22.131Z,10.13
2023-04-18T17:24:50.808Z,10.12
2023-04-18T17:27:19.301Z,10.07
2023-04-18T17:29:47.737Z,10.03
2023-04-18T17:32:16.332Z,10.01
2023-04-18T17:34:44.748Z,9.97
2023-04-18T17:37:13.160Z,9.98
2023-04-18T17:39:41.911Z,9.95
2023-04-18T17:42:10.926Z,9.96
2023-04-18T17:44:40.106Z,9.97
2023-04-18T17:47:08.485Z,9.98
2023-04-18T17:49:36.906Z,9.87
2023-04-18T17:52:05.531Z,9.88
2023-04-18T17:54:34.016Z,9.86
2023-04-18T17:57:02.703Z,9.84
2023-04-18T17:59:31.049Z,9.87
2023-04-18T18:01:59.826Z,9.86
2023-04-18T18:04:28.399Z,9.84
2023-04-18T18:06:57.733Z,9.87
2023-04-18T18:09:26.308Z,9.81
2023-04-18T18:11:56.023Z,9.72
2023-04-18T18:14:25.251Z,9.75
2023-04-18T18:16:54.372Z,9.73
2023-04-18T18:19:22.928Z,9.71
2023-04-18T18:21:51.439Z,9.63
2023-04-18T18:24:20.184Z,9.65
2023-04-18T18:26:51.492Z,9.68
2023-04-18T18:29:20.599Z,9.70
2023-04-18T18:31:49.313Z,9.73
2023-04-18T18:34:18.276Z,9.69
2023-04-18T18:36:47.745Z,9.69
2023-04-18T18:39:16.788Z,9.68
2023-04-18T18:41:45.600Z,9.61
2023-04-18T18:44:14.001Z,9.63
2023-04-18T18:46:43.255Z,9.59
2023-04-18T18:49:11.928Z,9.59
2023-04-18T18:51:41.193Z,9.55
2023-04-18T18:54:10.083Z,9.67
2023-04-18T18:56:40.202Z,9.69
2023-04-18T18:59:08.683Z,9.63
2023-04-18T19:01:37.761Z,9.66
2023-04-18T19:04:06.603Z,9.65
2023-04-18T19:06:35.466Z,9.64
2023-04-18T19:09:05.468Z,9.60
2023-04-18T19:11:33.989Z,9.53
2023-04-18T19:14:03.201Z,9.47
2023-04-18T19:16:31.856Z,9.49
2023-04-18T19:19:00.362Z,9.48
2023-04-18T19:21:28.847Z,9.46
2023-04-18T19:23:57.362Z,9.49
2023-04-18T19:26:25.743Z,9.55
2023-04-18T19:28:54.769Z,9.56
2023-04-18T19:31:23.895Z,9.48
2023-04-18T19:33:52.302Z,9.44
2023-04-18T19:36:22.587Z,9.49
2023-04-18T19:38:51.147Z,9.50
2023-04-18T19:41:19.522Z,9.55
2023-04-18T19:43:48.716Z,9.60
2023-04-18T19:46:17.231Z,9.64
2023-04-18T19:48:45.656Z,9.68
2023-04-18T19:51:14.645Z,9.68
2023-04-18T19:53:43.141Z,9.70
2023-04-18T19:56:13.984Z,9.73
2023-04-18T19:58:46.892Z,9.76
2023-04-18T20:01:16.637Z,9.76
2023-04-18T20:03:45.452Z,9.77
2023-04-18T20:06:14.125Z,9.79
2023-04-18T20:08:42.601Z,9.75
2023-04-18T20:11:11.753Z,9.77
2023-04-18T20:13:40.550Z,9.75
2023-04-18T20:16:09.409Z,9.78
2023-04-18T20:18:39.930Z,9.75
2023-04-18T20:21:09.437Z,9.76
2023-04-18T20:23:38.202Z,9.79
2023-04-18T20:26:06.816Z,9.80
2023-04-18T20:28:36.502Z,9.79
2023-04-18T20:31:05.106Z,9.76
2023-04-18T20:33:33.629Z,9.74
2023-04-18T20:36:02.152Z,9.73
2023-04-18T20:38:30.493Z,9.73
2023-04-18T20:40:59.093Z,9.67
2023-04-18T20:43:28.214Z,9.69
2023-04-18T20:45:58.900Z,9.69
2023-04-18T20:48:27.266Z,9.60
2023-04-18T20:50:55.710Z,9.64
2023-04-18T20:53:27.281Z,9.57
2023-04-18T20:55:55.748Z,9.58
2023-04-18T20:58:24.176Z,9.57
2023-04-18T21:00:52.645Z,9.62
2023-04-18T21:03:21.140Z,9.65
2023-04-18T21:05:49.654Z,9.67
2023-04-18T21:08:18.085Z,9.67
2023-04-18T21:10:46.408Z,9.56
2023-04-18T21:13:15.054Z,9.40
2023-04-18T21:15:43.507Z,9.44
2023-04-18T21:18:12.149Z,9.45
2023-04-18T21:20:40.723Z,9.44
2023-04-18T21:23:09.124Z,9.49
2023-04-18T21:25:37.462Z,9.48
2023-04-18T21:28:06.300Z,9.43
2023-04-18T21:30:34.650Z,9.37
2023-04-18T21:33:03.562Z,9.37
2023-04-18T21:35:32.063Z,9.34
2023-04-18T21:38:00.528Z,9.31
2023-04-18T21:40:30.911Z,9.30
2023-04-18T21:42:59.317Z,9.26
2023-04-18T21:45:27.895Z,9.24
2023-04-18T21:47:56.291Z,9.19
2023-04-18T21:50:24.816Z,9.18
2023-04-18T21:52:53.228Z,9.18
2023-04-18T21:55:21.653Z,9.17
2023-04-18T21:57:50.031Z,9.12
2023-04-18T22:00:19.340Z,9.08
2023-04-18T22:02:48.055Z,9.03
2023-04-18T22:05:16.535Z,9.05
2023-04-18T22:07:56.863Z,9.01
2023-04-18T22:10:26.659Z,8.97
2023-04-18T22:12:55.317Z,8.94
2023-04-18T22:15:24.408Z,8.96
2023-04-18T22:17:54.349Z,9.10
2023-04-18T22:20:23.491Z,8.99
2023-04-18T22:22:52.245Z,9.01
2023-04-18T22:25:20.583Z,9.06
2023-04-18T22:27:49.022Z,9.17
2023-04-18T22:30:18.111Z,9.18
2023-04-18T22:32:46.928Z,9.13
2023-04-18T22:35:16.097Z,9.19
2023-04-18T22:37:44.492Z,9.20
2023-04-18T22:40:13.445Z,9.25
2023-04-18T22:42:41.906Z,9.27
2023-04-18T22:45:11.013Z,9.27
2023-04-18T22:47:39.585Z,9.14
2023-04-18T22:50:08.770Z,9.18
2023-04-18T22:52:37.108Z,9.25
2023-04-18T22:55:05.834Z,9.24
2023-04-18T22:57:34.180Z,9.27
2023-04-18T23:00:04.401Z,9.30
2023-04-18T23:02:33.268Z,9.36
2023-04-18T23:05:02.936Z,9.43
2023-04-18T23:07:31.419Z,9.47
2023-04-18T23:09:59.816Z,9.50
2023-04-18T23:12:28.394Z,9.50
2023-04-18T23:14:56.726Z,9.48
2023-04-18T23:17:25.187Z,9.44
2023-04-18T23:19:53.646Z,9.41
2023-04-18T23:22:24.306Z,9.38
2023-04-18T23:24:52.763Z,9.28
2023-04-18T23:27:21.251Z,9.26
2023-04-18T23:29:49.609Z,9.12
2023-04-18T23:32:17.946Z,9.07
2023-04-18T23:34:46.551Z,9.08
2023-04-18T23:37:14.927Z,9.06
2023-04-18T23:39:43.312Z,9.08
2023-04-18T23:42:11.729Z,9.09
2023-04-18T23:44:40.061Z,8.97
2023-04-18T23:47:08.592Z,8.87
2023-04-18T23:49:37.005Z,8.78
2023-04-18T23:52:05.497Z,8.77
2023-04-18T23:54:33.844Z,8.83
2023-04-18T23:57:02.248Z,8.84
2023-04-18T23:59:30.571Z,8.83
